createdAt,value
2023-02-11T00:00:51.137Z,21.32
2023-02-11T00:04:15.007Z,21.31
2023-02-11T00:07:38.578Z,21.31
2023-02-11T00:11:16.207Z,21.32
2023-02-11T00:15:00.336Z,21.30
2023-02-11T00:22:11.765Z,21.27
2023-02-11T00:25:42.730Z,21.18
2023-02-11T00:29:06.085Z,21.24
2023-02-11T00:32:34.936Z,21.26
2023-02-11T00:36:05.879Z,21.25
2023-02-11T00:39:27.908Z,21.25
2023-02-11T00:42:53.956Z,21.27
2023-02-11T00:46:22.302Z,21.25
2023-02-11T00:49:46.704Z,21.21
2023-02-11T00:53:08.626Z,21.21
2023-02-11T00:56:45.654Z,21.19
2023-02-11T01:00:08.602Z,21.20
2023-02-11T01:03:31.557Z,21.20
2023-02-11T01:06:54.305Z,21.17
2023-02-11T01:10:16.232Z,21.17
2023-02-11T01:13:40.107Z,21.19
2023-02-11T01:17:19.777Z,21.21
2023-02-11T01:20:45.184Z,21.21
2023-02-11T01:24:12.747Z,21.22
2023-02-11T01:27:38.110Z,21.20
2023-02-11T01:31:03.940Z,21.18
2023-02-11T01:34:30.220Z,21.20
2023-02-11T01:37:52.197Z,21.22
2023-02-11T01:41:25.748Z,21.20
2023-02-11T01:44:54.786Z,21.18
2023-02-11T01:48:47.193Z,21.19
2023-02-11T01:52:26.877Z,21.19
2023-02-11T01:56:07.415Z,21.17
2023-02-11T01:59:39.734Z,21.17
2023-02-11T02:03:16.888Z,21.16
2023-02-11T02:06:54.923Z,21.14
2023-02-11T02:10:21.422Z,21.16
2023-02-11T02:13:43.238Z,21.19
2023-02-11T02:17:21.306Z,21.21
2023-02-11T02:21:11.246Z,21.19
2023-02-11T02:25:13.415Z,21.13
2023-02-11T02:29:00.376Z,21.06
2023-02-11T02:33:23.338Z,21.04
2023-02-11T02:36:59.194Z,21.03
2023-02-11T02:40:46.650Z,21.05
2023-02-11T02:44:09.506Z,21.06
2023-02-11T02:47:34.952Z,21.09
2023-02-11T02:51:43.049Z,21.10
2023-02-11T02:55:25.301Z,21.07
2023-02-11T02:59:11.668Z,21.09
2023-02-11T03:03:01.120Z,21.10
2023-02-11T03:06:39.043Z,21.10
2023-02-11T03:10:14.219Z,21.10
2023-02-11T03:13:46.030Z,21.13
2023-02-11T03:17:27.618Z,21.14
2023-02-11T03:21:00.950Z,21.15
2023-02-11T03:24:36.948Z,21.13
2023-02-11T03:29:04.526Z,21.10
2023-02-11T03:32:36.666Z,21.12
2023-02-11T03:36:07.648Z,21.13
2023-02-11T03:39:36.835Z,21.13
2023-02-11T03:43:04.642Z,21.13
2023-02-11T03:46:34.843Z,21.09
2023-02-11T03:49:59.293Z,21.09
2023-02-11T03:53:22.831Z,21.12
2023-02-11T03:57:08.836Z,21.15
2023-02-11T04:00:38.284Z,21.15
2023-02-11T04:04:00.142Z,21.11
2023-02-11T04:07:22.119Z,21.11
2023-02-11T04:10:43.921Z,21.11
2023-02-11T04:14:06.801Z,21.12
2023-02-11T04:17:28.685Z,21.14
2023-02-11T04:21:03.215Z,21.13
2023-02-11T04:24:28.521Z,21.10
2023-02-11T04:27:52.426Z,21.10
2023-02-11T04:31:14.717Z,21.09
2023-02-11T04:34:36.658Z,21.10
2023-02-11T04:37:58.546Z,21.12
2023-02-11T04:41:20.847Z,21.12
2023-02-11T04:44:44.852Z,21.12
2023-02-11T04:48:14.274Z,21.10
2023-02-11T04:51:37.179Z,21.09
2023-02-11T04:55:00.643Z,21.07
2023-02-11T04:58:26.987Z,21.04
2023-02-11T05:01:50.129Z,20.98
2023-02-11T05:05:12.324Z,21.00
2023-02-11T05:08:35.293Z,21.01
2023-02-11T05:11:57.090Z,21.01
2023-02-11T05:15:22.947Z,20.98
2023-02-11T05:18:47.538Z,20.99
2023-02-11T05:22:11.305Z,20.97
2023-02-11T05:25:38.130Z,20.92
2023-02-11T05:29:08.737Z,20.94
2023-02-11T05:32:33.858Z,20.97
2023-02-11T05:36:04.147Z,20.96
2023-02-11T05:39:38.819Z,20.96
2023-02-11T05:43:00.781Z,20.96
2023-02-11T05:46:24.450Z,20.98
2023-02-11T05:49:46.710Z,20.98
2023-02-11T05:53:10.491Z,20.98
2023-02-11T05:56:35.592Z,20.97
2023-02-11T05:59:57.604Z,20.95
2023-02-11T06:03:22.390Z,20.97
2023-02-11T06:06:49.359Z,20.98
2023-02-11T06:10:14.729Z,20.99
2023-02-11T06:13:36.556Z,21.02
2023-02-11T06:16:59.371Z,21.05
2023-02-11T06:20:22.917Z,21.08
2023-02-11T06:23:45.448Z,21.09
2023-02-11T06:27:39.313Z,21.08
2023-02-11T06:31:09.330Z,21.07
2023-02-11T06:34:31.446Z,21.08
2023-02-11T06:38:09.717Z,21.13
2023-02-11T06:41:31.865Z,21.17
2023-02-11T06:44:53.761Z,21.19
2023-02-11T06:48:16.455Z,21.25
2023-02-11T06:51:38.951Z,21.30
2023-02-11T06:55:00.812Z,21.33
2023-02-11T06:58:22.772Z,21.37
2023-02-11T07:01:45.642Z,21.43
2023-02-11T07:05:16.919Z,21.46
2023-02-11T07:08:43.627Z,21.50
2023-02-11T07:12:07.769Z,21.51
2023-02-11T07:15:29.717Z,21.54
2023-02-11T07:18:52.801Z,21.54
2023-02-11T07:22:14.659Z,21.55
2023-02-11T07:25:38.110Z,21.55
2023-02-11T07:29:02.247Z,21.55
2023-02-11T07:32:24.359Z,21.54
2023-02-11T07:35:51.392Z,21.55
2023-02-11T07:39:16.831Z,21.56
2023-02-11T07:42:44.695Z,21.55
2023-02-11T07:46:11.625Z,21.54
2023-02-11T07:49:39.884Z,21.52
2023-02-11T07:53:03.659Z,21.53
2023-02-11T07:56:29.623Z,21.55
2023-02-11T07:59:51.473Z,21.58
2023-02-11T08:03:13.294Z,21.60
2023-02-11T08:06:40.851Z,21.61
2023-02-11T08:10:02.832Z,21.61
2023-02-11T08:13:27.143Z,21.61
2023-02-11T08:16:51.666Z,21.66
2023-02-11T08:20:14.529Z,21.70
2023-02-11T08:23:38.974Z,21.74
2023-02-11T08:27:01.523Z,21.78
2023-02-11T08:30:25.096Z,21.81
2023-02-11T08:33:58.322Z,21.80
2023-02-11T08:37:23.027Z,21.81
2023-02-11T08:40:48.299Z,21.80
2023-02-11T08:44:18.727Z,21.77
2023-02-11T08:47:41.202Z,21.76
2023-02-11T08:51:15.275Z,21.77
2023-02-11T08:54:44.721Z,21.78
2023-02-11T08:58:06.930Z,21.80
2023-02-11T09:01:31.171Z,21.84
2023-02-11T09:04:53.026Z,21.88
2023-02-11T09:08:15.449Z,21.93
2023-02-11T09:11:37.408Z,21.96
2023-02-11T09:14:59.440Z,21.97
2023-02-11T09:18:23.578Z,21.99
2023-02-11T09:21:46.491Z,21.99
2023-02-11T09:25:08.675Z,21.99
2023-02-11T09:28:30.635Z,22.00
2023-02-11T09:31:52.871Z,22.00
2023-02-11T09:35:18.093Z,21.99
2023-02-11T09:38:40.001Z,21.97
2023-02-11T09:42:45.005Z,21.95
2023-02-11T09:46:13.717Z,21.90
2023-02-11T09:49:48.009Z,21.89
2023-02-11T09:53:31.785Z,21.86
2023-02-11T09:56:55.730Z,21.83
2023-02-11T10:00:20.529Z,21.83
2023-02-11T10:03:45.270Z,21.83
2023-02-11T10:07:33.142Z,21.85
2023-02-11T10:11:32.450Z,21.85
2023-02-11T10:15:03.249Z,21.84
2023-02-11T10:18:25.009Z,21.85
2023-02-11T10:22:06.093Z,21.86
2023-02-11T10:25:37.341Z,21.83
2023-02-11T10:29:02.504Z,21.82
2023-02-11T10:32:52.059Z,21.83
2023-02-11T10:36:15.451Z,21.83
2023-02-11T10:39:40.242Z,21.80
2023-02-11T10:43:05.194Z,21.80
2023-02-11T10:46:31.990Z,21.83
2023-02-11T10:49:53.914Z,21.83
2023-02-11T10:53:22.391Z,21.83
2023-02-11T10:56:54.766Z,21.82
2023-02-11T11:00:40.344Z,21.81
2023-02-11T11:04:02.411Z,21.81
2023-02-11T11:07:34.180Z,21.81
2023-02-11T11:11:10.288Z,21.80
2023-02-11T11:14:32.102Z,21.81
2023-02-11T11:18:22.603Z,21.81
2023-02-11T11:21:47.491Z,21.78
2023-02-11T11:25:26.996Z,21.77
2023-02-11T11:29:01.460Z,21.75
2023-02-11T11:32:29.788Z,21.75
2023-02-11T11:35:59.971Z,21.75
2023-02-11T11:39:25.587Z,21.79
2023-02-11T11:43:04.879Z,21.82
2023-02-11T11:46:35.970Z,21.84
2023-02-11T11:50:12.466Z,21.85
2023-02-11T11:53:51.449Z,21.86
2023-02-11T11:57:17.604Z,21.87
2023-02-11T12:00:52.473Z,21.88
2023-02-11T12:04:23.482Z,21.89
2023-02-11T12:08:00.723Z,21.91
2023-02-11T12:11:38.655Z,21.91
2023-02-11T12:15:07.452Z,21.93
2023-02-11T12:18:42.040Z,21.94
2023-02-11T12:22:18.876Z,21.94
2023-02-11T12:25:50.959Z,21.95
2023-02-11T12:29:22.235Z,21.95
2023-02-11T12:33:07.097Z,21.95
2023-02-11T12:36:55.328Z,21.92
2023-02-11T12:40:17.198Z,21.92
2023-02-11T12:43:41.299Z,21.93
2023-02-11T12:47:14.499Z,21.93
2023-02-11T12:50:42.442Z,21.93
2023-02-11T12:54:32.895Z,21.92
2023-02-11T12:57:57.999Z,21.92
2023-02-11T13:01:27.378Z,21.95
2023-02-11T13:04:56.175Z,21.96
2023-02-11T13:08:43.796Z,21.86
2023-02-11T13:12:25.830Z,21.84
2023-02-11T13:15:52.282Z,21.85
2023-02-11T13:19:14.159Z,21.88
2023-02-11T13:22:51.182Z,21.91
2023-02-11T13:26:47.748Z,21.96
2023-02-11T13:30:30.584Z,21.95
2023-02-11T13:33:53.228Z,21.98
2023-02-11T13:37:23.793Z,22.02
2023-02-11T13:40:45.835Z,22.03
2023-02-11T13:44:10.778Z,22.10
2023-02-11T13:47:34.227Z,22.15
2023-02-11T13:51:06.183Z,22.22
2023-02-11T13:54:34.873Z,22.30
2023-02-11T13:58:05.992Z,22.40
2023-02-11T14:02:12.539Z,22.42
2023-02-11T14:05:53.448Z,22.44
2023-02-11T14:09:18.108Z,22.44
2023-02-11T14:12:42.584Z,22.38
2023-02-11T14:16:35.599Z,22.09
2023-02-11T14:20:01.970Z,21.77
2023-02-11T14:23:28.324Z,21.54
2023-02-11T14:27:23.264Z,21.34
2023-02-11T14:31:10.907Z,21.24
2023-02-11T14:34:40.839Z,21.22
2023-02-11T14:38:12.841Z,21.20
2023-02-11T14:41:46.444Z,21.17
2023-02-11T14:45:11.691Z,21.17
2023-02-11T14:48:35.339Z,21.17
2023-02-11T14:52:27.417Z,21.20
2023-02-11T14:55:54.584Z,21.28
2023-02-11T14:59:26.160Z,21.33
2023-02-11T15:02:48.697Z,21.39
2023-02-11T15:06:16.951Z,21.42
2023-02-11T15:09:46.698Z,21.48
2023-02-11T15:13:09.085Z,21.53
2023-02-11T15:16:32.568Z,21.60
2023-02-11T15:19:57.462Z,21.69
2023-02-11T15:23:27.556Z,21.73
2023-02-11T15:27:11.385Z,21.76
2023-02-11T15:30:36.727Z,21.79
2023-02-11T15:34:09.755Z,21.84
2023-02-11T15:37:31.670Z,21.87
2023-02-11T15:40:58.505Z,21.91
2023-02-11T15:44:30.506Z,21.94
2023-02-11T15:48:06.524Z,21.96
2023-02-11T15:51:38.068Z,21.97
2023-02-11T15:55:03.554Z,21.97
2023-02-11T15:58:25.418Z,21.98
2023-02-11T16:01:48.158Z,21.98
2023-02-11T16:05:27.246Z,21.97
2023-02-11T16:09:11.895Z,21.96
2023-02-11T16:12:33.670Z,21.97
2023-02-11T16:16:13.751Z,21.98
2023-02-11T16:19:37.761Z,21.99
2023-02-11T16:23:00.297Z,22.00
2023-02-11T16:26:33.114Z,22.00
2023-02-11T16:29:55.020Z,22.02
2023-02-11T16:33:16.864Z,22.03
2023-02-11T16:36:41.440Z,22.05
2023-02-11T16:40:03.287Z,22.07
2023-02-11T16:43:25.156Z,22.08
2023-02-11T16:46:47.527Z,22.08
2023-02-11T16:50:11.654Z,22.10
2023-02-11T16:53:34.897Z,22.11
2023-02-11T16:56:57.578Z,22.11
2023-02-11T17:00:19.934Z,22.12
2023-02-11T17:03:43.762Z,22.14
2023-02-11T17:07:05.790Z,22.14
2023-02-11T17:10:27.686Z,22.15
2023-02-11T17:13:49.617Z,22.15
2023-02-11T17:17:12.046Z,22.15
2023-02-11T17:20:33.913Z,22.15
2023-02-11T17:23:55.843Z,22.16
2023-02-11T17:27:25.104Z,22.16
2023-02-11T17:30:54.399Z,22.16
2023-02-11T17:34:16.944Z,22.17
2023-02-11T17:37:38.779Z,22.18
2023-02-11T17:41:01.809Z,22.19
2023-02-11T17:44:23.776Z,22.20
2023-02-11T17:47:46.238Z,22.20
2023-02-11T17:51:32.659Z,22.20
2023-02-11T17:54:55.461Z,22.20
2023-02-11T17:58:17.297Z,22.21
2023-02-11T18:01:43.751Z,22.22
2023-02-11T18:05:06.508Z,22.23
2023-02-11T18:08:28.567Z,22.24
2023-02-11T18:11:52.683Z,22.26
2023-02-11T18:15:14.551Z,22.27
2023-02-11T18:18:36.385Z,22.27
2023-02-11T18:22:00.958Z,22.29
2023-02-11T18:25:24.005Z,22.29
2023-02-11T18:28:46.300Z,22.30
2023-02-11T18:32:08.352Z,22.31
2023-02-11T18:35:30.239Z,22.32
2023-02-11T18:38:57.109Z,22.33
2023-02-11T18:42:18.926Z,22.35
2023-02-11T18:45:45.269Z,22.36
2023-02-11T18:49:07.323Z,22.36
2023-02-11T18:52:29.217Z,22.38
2023-02-11T18:55:52.228Z,22.39
2023-02-11T18:59:14.509Z,22.40
2023-02-11T19:02:37.216Z,22.41
2023-02-11T19:05:59.058Z,22.43
2023-02-11T19:09:21.073Z,22.44
2023-02-11T19:12:43.913Z,22.45
2023-02-11T19:16:22.160Z,22.46
2023-02-11T19:19:44.163Z,22.47
2023-02-11T19:23:05.981Z,22.47
2023-02-11T19:26:29.239Z,22.47
2023-02-11T19:29:51.164Z,22.49
2023-02-11T19:33:12.970Z,22.52
2023-02-11T19:36:37.160Z,22.57
2023-02-11T19:39:58.970Z,22.63
2023-02-11T19:43:20.948Z,22.68
2023-02-11T19:46:43.203Z,22.72
2023-02-11T19:50:06.425Z,22.76
2023-02-11T19:53:28.295Z,22.80
2023-02-11T19:56:50.297Z,22.84
2023-02-11T20:00:12.770Z,22.87
2023-02-11T20:03:35.066Z,22.90
2023-02-11T20:06:56.891Z,22.94
2023-02-11T20:10:18.844Z,22.98
2023-02-11T20:13:40.765Z,23.00
2023-02-11T20:17:06.788Z,23.04
2023-02-11T20:20:28.678Z,23.07
2023-02-11T20:23:51.421Z,23.09
2023-02-11T20:27:13.606Z,23.11
2023-02-11T20:30:37.587Z,23.15
2023-02-11T20:34:01.247Z,23.20
2023-02-11T20:37:23.053Z,23.28
2023-02-11T20:40:45.085Z,23.35
2023-02-11T20:44:09.955Z,23.41
2023-02-11T20:47:31.756Z,23.47
2023-02-11T20:50:54.265Z,23.53
2023-02-11T20:54:22.802Z,23.56
2023-02-11T20:57:46.990Z,23.58
2023-02-11T21:01:17.093Z,23.58
2023-02-11T21:04:39.971Z,23.56
2023-02-11T21:08:23.805Z,23.53
2023-02-11T21:11:45.780Z,23.48
2023-02-11T21:15:09.760Z,23.44
2023-02-11T21:18:32.003Z,23.41
2023-02-11T21:21:58.741Z,23.37
2023-02-11T21:25:24.307Z,23.33
2023-02-11T21:28:52.931Z,23.29
2023-02-11T21:32:21.119Z,23.24
2023-02-11T21:35:43.966Z,23.20
2023-02-11T21:39:54.210Z,23.16
2023-02-11T21:43:02.794Z,23.09
2023-02-11T21:46:25.079Z,23.04
2023-02-11T21:49:46.950Z,23.00
2023-02-11T21:53:09.140Z,22.98
2023-02-11T21:56:36.894Z,22.94
2023-02-11T21:59:58.783Z,22.92
2023-02-11T22:03:20.707Z,22.94
2023-02-11T22:06:42.538Z,22.93
2023-02-11T22:10:05.034Z,22.92
2023-02-11T22:13:30.613Z,22.89
2023-02-11T22:16:52.591Z,22.83
2023-02-11T22:20:16.153Z,22.83
2023-02-11T22:23:39.328Z,22.84
2023-02-11T22:27:01.527Z,22.83
2023-02-11T22:30:23.400Z,22.81
2023-02-11T22:33:46.385Z,22.76
2023-02-11T22:37:08.452Z,22.72
2023-02-11T22:40:30.315Z,22.71
2023-02-11T22:43:52.095Z,22.69
2023-02-11T22:47:14.020Z,22.66
2023-02-11T22:50:35.876Z,22.64
2023-02-11T22:54:03.287Z,22.62
2023-02-11T22:57:25.052Z,22.57
2023-02-11T23:00:46.941Z,22.53
2023-02-11T23:04:11.681Z,22.46
2023-02-11T23:07:33.614Z,22.43
2023-02-11T23:10:55.938Z,22.40
2023-02-11T23:14:17.710Z,22.34
2023-02-11T23:17:39.464Z,22.33
2023-02-11T23:21:11.315Z,22.29
2023-02-11T23:24:34.131Z,22.25
2023-02-11T23:27:56.138Z,22.25
2023-02-11T23:31:24.078Z,22.22
2023-02-11T23:34:46.020Z,22.19
2023-02-11T23:38:07.878Z,22.17
2023-02-11T23:41:29.891Z,22.13
2023-02-11T23:44:51.753Z,22.13
2023-02-11T23:48:13.644Z,22.12
2023-02-11T23:51:35.453Z,22.11
2023-02-11T23:54:57.212Z,22.09
2023-02-11T23:58:19.096Z,22.06
